sensor_id;sensor_type;location;lat;lon;timestamp;pressure;altitude;pressure_sealevel;temperature;humidity
55486;BME280;49383;-25.924;28.194;2023-02-03T00:01:37;85270.55;;;24.11;41.14
55486;BME280;49383;-25.924;28.194;2023-02-03T00:04:03;85271.81;;;24.38;41.14
55486;BME280;49383;-25.924;28.194;2023-02-03T00:06:28;85271.79;;;24.16;41.07
55486;BME280;49383;-25.924;28.194;2023-02-03T00:08:55;85269.67;;;24.11;41.14
55486;BME280;49383;-25.924;28.194;2023-02-03T00:11:19;85266.07;;;24.09;41.16
55486;BME280;49383;-25.924;28.194;2023-02-03T00:13:46;85264.93;;;24.10;41.15
55486;BME280;49383;-25.924;28.194;2023-02-03T00:16:10;85270.50;;;24.15;41.08
55486;BME280;49383;-25.924;28.194;2023-02-03T00:18:36;85274.02;;;23.95;41.07
55486;BME280;49383;-25.924;28.194;2023-02-03T00:21:02;85274.41;;;24.27;40.92
55486;BME280;49383;-25.924;28.194;2023-02-03T00:23:28;85275.71;;;24.20;41.01
55486;BME280;49383;-25.924;28.194;2023-02-03T00:25:53;85272.20;;;24.28;40.91
55486;BME280;49383;-25.924;28.194;2023-02-03T00:28:19;85272.40;;;24.27;40.91
55486;BME280;49383;-25.924;28.194;2023-02-03T00:30:46;85271.92;;;24.05;40.91
55486;BME280;49383;-25.924;28.194;2023-02-03T00:33:11;85266.51;;;24.21;40.99
55486;BME280;49383;-25.924;28.194;2023-02-03T00:35:38;85259.20;;;23.97;41.04
55486;BME280;49383;-25.924;28.194;2023-02-03T00:38:02;85258.74;;;24.11;41.17
55486;BME280;49383;-25.924;28.194;2023-02-03T00:40:28;85258.85;;;24.12;41.16
55486;BME280;49383;-25.924;28.194;2023-02-03T00:42:54;85255.50;;;24.17;41.08
55486;BME280;49383;-25.924;28.194;2023-02-03T00:45:20;85251.04;;;24.12;41.15
55486;BME280;49383;-25.924;28.194;2023-02-03T00:47:46;85252.25;;;24.04;41.27
55486;BME280;49383;-25.924;28.194;2023-02-03T00:50:11;85241.89;;;24.02;41.32
55486;BME280;49383;-25.924;28.194;2023-02-03T00:52:37;85242.62;;;24.30;41.30
55486;BME280;49383;-25.924;28.194;2023-02-03T00:55:03;85240.82;;;24.05;41.26
55486;BME280;49383;-25.924;28.194;2023-02-03T00:57:28;85239.56;;;24.07;41.26
55486;BME280;49383;-25.924;28.194;2023-02-03T00:59:54;85235.31;;;24.06;41.27
55486;BME280;49383;-25.924;28.194;2023-02-03T01:02:20;85235.48;;;24.46;41.10
55486;BME280;49383;-25.924;28.194;2023-02-03T01:04:46;85234.54;;;24.23;41.03
55486;BME280;49383;-25.924;28.194;2023-02-03T01:07:12;85229.61;;;24.26;41.00
55486;BME280;49383;-25.924;28.194;2023-02-03T01:09:38;85228.50;;;24.25;41.00
55486;BME280;49383;-25.924;28.194;2023-02-03T01:12:03;85222.78;;;24.19;41.10
55486;BME280;49383;-25.924;28.194;2023-02-03T01:14:30;85215.53;;;24.18;41.13
55486;BME280;49383;-25.924;28.194;2023-02-03T01:16:55;85215.64;;;24.17;41.15
55486;BME280;49383;-25.924;28.194;2023-02-03T01:19:21;85218.58;;;24.13;41.20
55486;BME280;49383;-25.924;28.194;2023-02-03T01:21:47;85221.82;;;24.30;41.33
55486;BME280;49383;-25.924;28.194;2023-02-03T01:24:12;85221.61;;;24.01;41.38
55486;BME280;49383;-25.924;28.194;2023-02-03T01:26:38;85226.58;;;24.02;41.38
55486;BME280;49383;-25.924;28.194;2023-02-03T01:29:04;85225.99;;;24.06;41.33
55486;BME280;49383;-25.924;28.194;2023-02-03T01:31:32;85227.90;;;23.83;41.35
55486;BME280;49383;-25.924;28.194;2023-02-03T01:33:56;85225.48;;;24.35;41.30
55486;BME280;49383;-25.924;28.194;2023-02-03T01:36:25;85223.66;;;24.03;41.38
55486;BME280;49383;-25.924;28.194;2023-02-03T01:38:47;85223.35;;;24.01;41.40
55486;BME280;49383;-25.924;28.194;2023-02-03T01:41:15;85221.83;;;24.11;41.27
55486;BME280;49383;-25.924;28.194;2023-02-03T01:43:42;85220.85;;;24.02;41.42
55486;BME280;49383;-25.924;28.194;2023-02-03T01:46:12;85219.68;;;24.07;41.36
55486;BME280;49383;-25.924;28.194;2023-02-03T01:48:32;85217.37;;;23.97;41.47
55486;BME280;49383;-25.924;28.194;2023-02-03T01:50:56;85217.21;;;24.26;41.45
55486;BME280;49383;-25.924;28.194;2023-02-03T01:53:22;85215.71;;;24.28;41.44
55486;BME280;49383;-25.924;28.194;2023-02-03T01:55:49;85210.79;;;23.98;41.47
55486;BME280;49383;-25.924;28.194;2023-02-03T01:58:16;85213.12;;;23.96;41.51
55486;BME280;49383;-25.924;28.194;2023-02-03T02:00:38;85209.19;;;24.27;41.44
55486;BME280;49383;-25.924;28.194;2023-02-03T02:03:04;85204.33;;;24.25;41.48
55486;BME280;49383;-25.924;28.194;2023-02-03T02:05:33;85204.73;;;24.01;41.44
55486;BME280;49383;-25.924;28.194;2023-02-03T02:07:56;85205.17;;;24.17;41.58
55486;BME280;49383;-25.924;28.194;2023-02-03T02:10:21;85206.30;;;24.19;41.56
55486;BME280;49383;-25.924;28.194;2023-02-03T02:12:47;85211.64;;;23.96;41.50
55486;BME280;49383;-25.924;28.194;2023-02-03T02:15:13;85218.19;;;24.20;41.57
55486;BME280;49383;-25.924;28.194;2023-02-03T02:17:52;85220.66;;;23.86;41.64
55486;BME280;49383;-25.924;28.194;2023-02-03T02:22:37;85209.92;;;23.85;41.66
55486;BME280;49383;-25.924;28.194;2023-02-03T02:27:33;85205.07;;;23.95;41.54
55486;BME280;49383;-25.924;28.194;2023-02-03T02:32:20;85208.11;;;24.23;41.51
55486;BME280;49383;-25.924;28.194;2023-02-03T02:34:47;85214.68;;;23.95;41.52
55486;BME280;49383;-25.924;28.194;2023-02-03T02:37:09;85221.05;;;23.96;41.52
55486;BME280;49383;-25.924;28.194;2023-02-03T02:39:37;85225.28;;;23.96;41.53
55486;BME280;49383;-25.924;28.194;2023-02-03T02:41:59;85229.51;;;23.83;41.68
55486;BME280;49383;-25.924;28.194;2023-02-03T02:44:24;85230.85;;;24.18;41.60
55486;BME280;49383;-25.924;28.194;2023-02-03T02:46:51;85226.02;;;23.91;41.60
55486;BME280;49383;-25.924;28.194;2023-02-03T02:49:18;85225.67;;;23.54;41.50
55486;BME280;49383;-25.924;28.194;2023-02-03T02:51:40;85227.64;;;23.97;41.51
55486;BME280;49383;-25.924;28.194;2023-02-03T02:54:07;85238.53;;;23.87;41.65
55486;BME280;49383;-25.924;28.194;2023-02-03T02:56:32;85245.59;;;24.12;41.68
55486;BME280;49383;-25.924;28.194;2023-02-03T02:58:58;85250.32;;;23.85;41.69
55486;BME280;49383;-25.924;28.194;2023-02-03T03:01:22;85256.81;;;23.84;41.70
55486;BME280;49383;-25.924;28.194;2023-02-03T03:03:48;85263.09;;;23.89;41.64
55486;BME280;49383;-25.924;28.194;2023-02-03T03:06:18;85262.29;;;23.89;41.64
55486;BME280;49383;-25.924;28.194;2023-02-03T03:08:45;85258.71;;;23.82;41.73
55486;BME280;49383;-25.924;28.194;2023-02-03T03:11:05;85256.40;;;24.13;41.67
55486;BME280;49383;-25.924;28.194;2023-02-03T03:13:35;85257.24;;;24.08;41.76
55486;BME280;49383;-25.924;28.194;2023-02-03T03:15:58;85254.57;;;23.82;41.74
55486;BME280;49383;-25.924;28.194;2023-02-03T03:18:26;85257.32;;;24.19;41.62
55486;BME280;49383;-25.924;28.194;2023-02-03T03:20:51;85255.09;;;23.93;41.62
55486;BME280;49383;-25.924;28.194;2023-02-03T03:23:18;85256.25;;;23.82;41.74
55486;BME280;49383;-25.924;28.194;2023-02-03T03:25:45;85255.88;;;24.05;41.80
55486;BME280;49383;-25.924;28.194;2023-02-03T03:28:10;85255.71;;;23.84;41.74
55486;BME280;49383;-25.924;28.194;2023-02-03T03:30:34;85250.43;;;23.79;41.80
55486;BME280;49383;-25.924;28.194;2023-02-03T03:32:57;85251.40;;;23.84;41.75
55486;BME280;49383;-25.924;28.194;2023-02-03T03:35:27;85256.74;;;23.82;41.78
55486;BME280;49383;-25.924;28.194;2023-02-03T03:37:54;85259.09;;;24.06;41.81
55486;BME280;49383;-25.924;28.194;2023-02-03T03:40:19;85260.70;;;23.83;41.76
55486;BME280;49383;-25.924;28.194;2023-02-03T03:42:46;85267.76;;;23.79;41.81
55486;BME280;49383;-25.924;28.194;2023-02-03T03:45:12;85274.89;;;23.83;41.78
55486;BME280;49383;-25.924;28.194;2023-02-03T03:47:36;85278.84;;;24.08;41.80
55486;BME280;49383;-25.924;28.194;2023-02-03T03:50:00;85281.10;;;23.82;41.79
55486;BME280;49383;-25.924;28.194;2023-02-03T03:52:28;85285.02;;;23.89;41.69
55486;BME280;49383;-25.924;28.194;2023-02-03T03:54:51;85286.30;;;23.94;41.63
55486;BME280;49383;-25.924;28.194;2023-02-03T03:57:19;85289.22;;;23.93;41.63
55486;BME280;49383;-25.924;28.194;2023-02-03T03:59:44;85297.90;;;23.94;41.63
55486;BME280;49383;-25.924;28.194;2023-02-03T04:02:07;85301.01;;;24.21;41.63
55486;BME280;49383;-25.924;28.194;2023-02-03T04:04:34;85308.17;;;24.16;41.31
55486;BME280;49383;-25.924;28.194;2023-02-03T04:06:58;85309.22;;;24.01;41.52
55486;BME280;49383;-25.924;28.194;2023-02-03T04:09:24;85308.99;;;23.89;41.71
55486;BME280;49383;-25.924;28.194;2023-02-03T04:11:49;85308.63;;;24.00;41.95
55486;BME280;49383;-25.924;28.194;2023-02-03T04:14:14;85311.02;;;23.76;41.92
55486;BME280;49383;-25.924;28.194;2023-02-03T04:16:40;85309.59;;;23.73;41.97
55486;BME280;49383;-25.924;28.194;2023-02-03T04:19:06;85307.58;;;24.06;41.88
55486;BME280;49383;-25.924;28.194;2023-02-03T04:21:32;85309.90;;;23.75;41.95
55486;BME280;49383;-25.924;28.194;2023-02-03T04:23:57;85313.78;;;24.03;41.95
55486;BME280;49383;-25.924;28.194;2023-02-03T04:26:24;85318.92;;;23.77;41.94
55486;BME280;49383;-25.924;28.194;2023-02-03T04:28:49;85321.72;;;24.24;41.98
55486;BME280;49383;-25.924;28.194;2023-02-03T04:31:15;85321.83;;;24.07;41.92
55486;BME280;49383;-25.924;28.194;2023-02-03T04:33:41;85319.91;;;23.78;41.96
55486;BME280;49383;-25.924;28.194;2023-02-03T04:36:08;85319.04;;;23.98;42.05
55486;BME280;49383;-25.924;28.194;2023-02-03T04:38:31;85315.78;;;24.02;42.02
55486;BME280;49383;-25.924;28.194;2023-02-03T04:40:57;85312.30;;;24.03;42.00
55486;BME280;49383;-25.924;28.194;2023-02-03T04:43:23;85311.53;;;23.79;41.99
55486;BME280;49383;-25.924;28.194;2023-02-03T04:45:49;85312.45;;;23.78;42.03
55486;BME280;49383;-25.924;28.194;2023-02-03T04:48:15;85317.64;;;23.74;42.12
55486;BME280;49383;-25.924;28.194;2023-02-03T04:50:41;85326.43;;;24.04;42.11
55486;BME280;49383;-25.924;28.194;2023-02-03T04:53:06;85334.75;;;24.02;42.14
55486;BME280;49383;-25.924;28.194;2023-02-03T04:55:32;85340.95;;;23.74;42.17
55486;BME280;49383;-25.924;28.194;2023-02-03T04:57:59;85340.32;;;24.05;42.11
55486;BME280;49383;-25.924;28.194;2023-02-03T05:00:25;85338.13;;;24.26;42.14
55486;BME280;49383;-25.924;28.194;2023-02-03T05:02:50;85340.75;;;23.83;42.06
55486;BME280;49383;-25.924;28.194;2023-02-03T05:05:16;85343.89;;;23.74;42.20
55486;BME280;49383;-25.924;28.194;2023-02-03T05:07:41;85348.99;;;23.73;42.22
55486;BME280;49383;-25.924;28.194;2023-02-03T05:10:08;85351.45;;;23.80;42.13
55486;BME280;49383;-25.924;28.194;2023-02-03T05:12:33;85353.10;;;24.07;42.15
55486;BME280;49383;-25.924;28.194;2023-02-03T05:14:59;85353.52;;;23.98;42.29
55486;BME280;49383;-25.924;28.194;2023-02-03T05:17:24;85355.33;;;24.26;42.23
55486;BME280;49383;-25.924;28.194;2023-02-03T05:19:50;85353.76;;;23.75;42.28
55486;BME280;49383;-25.924;28.194;2023-02-03T05:22:15;85352.49;;;24.00;42.31
55486;BME280;49383;-25.924;28.194;2023-02-03T05:24:41;85356.82;;;23.75;42.32
55486;BME280;49383;-25.924;28.194;2023-02-03T05:27:07;85360.54;;;23.79;42.28
55486;BME280;49383;-25.924;28.194;2023-02-03T05:29:33;85363.89;;;23.71;42.40
55486;BME280;49383;-25.924;28.194;2023-02-03T05:31:59;85363.08;;;24.06;42.28
55486;BME280;49383;-25.924;28.194;2023-02-03T05:34:25;85364.19;;;23.82;42.26
55486;BME280;49383;-25.924;28.194;2023-02-03T05:36:50;85361.99;;;24.01;42.38
55486;BME280;49383;-25.924;28.194;2023-02-03T05:39:16;85359.39;;;23.73;42.43
55486;BME280;49383;-25.924;28.194;2023-02-03T05:41:41;85356.07;;;23.76;42.39
55486;BME280;49383;-25.924;28.194;2023-02-03T05:44:07;85351.23;;;23.72;42.44
55486;BME280;49383;-25.924;28.194;2023-02-03T05:46:33;85353.07;;;24.01;42.42
55486;BME280;49383;-25.924;28.194;2023-02-03T05:48:59;85352.85;;;23.72;42.48
55486;BME280;49383;-25.924;28.194;2023-02-03T05:51:25;85348.84;;;23.51;42.47
55486;BME280;49383;-25.924;28.194;2023-02-03T05:53:50;85346.99;;;23.77;42.42
55486;BME280;49383;-25.924;28.194;2023-02-03T05:56:16;85349.50;;;24.05;42.43
55486;BME280;49383;-25.924;28.194;2023-02-03T05:58:42;85347.44;;;23.78;42.45
55486;BME280;49383;-25.924;28.194;2023-02-03T06:01:08;85349.78;;;24.05;42.45
55486;BME280;49383;-25.924;28.194;2023-02-03T06:03:34;85350.97;;;23.84;42.40
55486;BME280;49383;-25.924;28.194;2023-02-03T06:05:59;85355.34;;;23.84;42.43
55486;BME280;49383;-25.924;28.194;2023-02-03T06:08:25;85359.06;;;23.82;42.47
55486;BME280;49383;-25.924;28.194;2023-02-03T06:10:51;85355.90;;;23.85;42.44
55486;BME280;49383;-25.924;28.194;2023-02-03T06:13:17;85352.66;;;23.81;42.54
55486;BME280;49383;-25.924;28.194;2023-02-03T06:15:43;85354.62;;;24.32;42.58
55486;BME280;49383;-25.924;28.194;2023-02-03T06:18:08;85358.28;;;23.92;42.51
55486;BME280;49383;-25.924;28.194;2023-02-03T06:20:34;85359.22;;;24.23;42.51
55486;BME280;49383;-25.924;28.194;2023-02-03T06:23:00;85356.60;;;24.07;42.37
55486;BME280;49383;-25.924;28.194;2023-02-03T06:25:25;85361.71;;;24.05;42.39
55486;BME280;49383;-25.924;28.194;2023-02-03T06:27:51;85359.81;;;23.94;42.55
55486;BME280;49383;-25.924;28.194;2023-02-03T06:30:17;85360.67;;;24.03;42.42
55486;BME280;49383;-25.924;28.194;2023-02-03T06:32:42;85360.78;;;24.04;42.38
55486;BME280;49383;-25.924;28.194;2023-02-03T06:35:08;85363.93;;;23.98;42.50
55486;BME280;49383;-25.924;28.194;2023-02-03T06:37:34;85365.17;;;24.02;42.42
55486;BME280;49383;-25.924;28.194;2023-02-03T06:40:00;85365.53;;;24.07;42.34
55486;BME280;49383;-25.924;28.194;2023-02-03T06:42:26;85367.24;;;24.12;42.28
55486;BME280;49383;-25.924;28.194;2023-02-03T06:44:51;85369.54;;;24.07;42.33
55486;BME280;49383;-25.924;28.194;2023-02-03T06:47:17;85367.33;;;24.07;42.33
55486;BME280;49383;-25.924;28.194;2023-02-03T06:49:43;85369.54;;;24.33;42.33
55486;BME280;49383;-25.924;28.194;2023-02-03T06:52:09;85367.06;;;24.32;42.37
55486;BME280;49383;-25.924;28.194;2023-02-03T06:54:35;85363.72;;;24.06;42.41
55486;BME280;49383;-25.924;28.194;2023-02-03T06:57:00;85360.53;;;24.25;42.18
55486;BME280;49383;-25.924;28.194;2023-02-03T06:59:26;85359.68;;;24.03;41.93
55486;BME280;49383;-25.924;28.194;2023-02-03T07:01:52;85361.04;;;24.54;41.53
55486;BME280;49383;-25.924;28.194;2023-02-03T07:04:18;85362.17;;;25.09;41.11
55486;BME280;49383;-25.924;28.194;2023-02-03T07:06:44;85358.76;;;24.90;40.72
55486;BME280;49383;-25.924;28.194;2023-02-03T07:09:09;85355.16;;;25.21;40.30
55486;BME280;49383;-25.924;28.194;2023-02-03T07:11:35;85356.59;;;25.24;39.67
55486;BME280;49383;-25.924;28.194;2023-02-03T07:14:01;85359.96;;;25.90;39.40
55486;BME280;49383;-25.924;28.194;2023-02-03T07:16:27;85358.83;;;25.46;39.33
55486;BME280;49383;-25.924;28.194;2023-02-03T07:18:53;85352.75;;;25.89;39.06
55486;BME280;49383;-25.924;28.194;2023-02-03T07:21:18;85355.78;;;25.50;39.25
55486;BME280;49383;-25.924;28.194;2023-02-03T07:23:46;85357.27;;;25.54;39.48
55486;BME280;49383;-25.924;28.194;2023-02-03T07:26:10;85354.97;;;25.44;39.97
55486;BME280;49383;-25.924;28.194;2023-02-03T07:28:36;85353.07;;;25.00;40.23
55486;BME280;49383;-25.924;28.194;2023-02-03T07:31:02;85355.09;;;25.22;40.30
55486;BME280;49383;-25.924;28.194;2023-02-03T07:33:27;85354.22;;;25.12;40.45
55486;BME280;49383;-25.924;28.194;2023-02-03T07:35:53;85354.13;;;24.86;40.78
55486;BME280;49383;-25.924;28.194;2023-02-03T07:38:19;85353.28;;;24.74;40.97
55486;BME280;49383;-25.924;28.194;2023-02-03T07:40:45;85351.47;;;25.04;41.20
55486;BME280;49383;-25.924;28.194;2023-02-03T07:43:10;85352.94;;;24.97;41.30
55486;BME280;49383;-25.924;28.194;2023-02-03T07:45:36;85352.23;;;24.93;41.36
55486;BME280;49383;-25.924;28.194;2023-02-03T07:48:02;85352.79;;;24.70;41.39
55486;BME280;49383;-25.924;28.194;2023-02-03T07:50:27;85351.54;;;24.87;41.46
55486;BME280;49383;-25.924;28.194;2023-02-03T07:52:53;85352.03;;;24.58;41.55
55486;BME280;49383;-25.924;28.194;2023-02-03T07:55:19;85345.83;;;24.59;41.53
55486;BME280;49383;-25.924;28.194;2023-02-03T07:57:45;85337.89;;;24.51;41.63
55486;BME280;49383;-25.924;28.194;2023-02-03T08:00:13;85331.07;;;24.68;41.71
55486;BME280;49383;-25.924;28.194;2023-02-03T08:02:36;85323.22;;;24.62;41.81
55486;BME280;49383;-25.924;28.194;2023-02-03T08:05:02;85322.77;;;24.24;41.72
55486;BME280;49383;-25.924;28.194;2023-02-03T08:07:28;85318.57;;;24.70;41.69
55486;BME280;49383;-25.924;28.194;2023-02-03T08:09:53;85315.83;;;24.66;41.74
55486;BME280;49383;-25.924;28.194;2023-02-03T08:12:19;85313.22;;;24.70;41.68
55486;BME280;49383;-25.924;28.194;2023-02-03T08:14:45;85313.52;;;24.65;41.75
55486;BME280;49383;-25.924;28.194;2023-02-03T08:17:11;85316.54;;;24.39;41.82
55486;BME280;49383;-25.924;28.194;2023-02-03T08:19:37;85314.43;;;24.32;41.63
55486;BME280;49383;-25.924;28.194;2023-02-03T08:22:03;85309.31;;;24.44;41.50
55486;BME280;49383;-25.924;28.194;2023-02-03T08:24:28;85305.01;;;24.64;41.52
55486;BME280;49383;-25.924;28.194;2023-02-03T08:26:54;85302.41;;;24.87;41.52
55486;BME280;49383;-25.924;28.194;2023-02-03T08:29:20;85301.53;;;24.67;41.50
55486;BME280;49383;-25.924;28.194;2023-02-03T08:31:46;85298.67;;;24.56;41.62
55486;BME280;49383;-25.924;28.194;2023-02-03T08:34:11;85298.44;;;24.65;41.51
55486;BME280;49383;-25.924;28.194;2023-02-03T08:36:37;85296.80;;;24.43;41.52
55486;BME280;49383;-25.924;28.194;2023-02-03T08:39:03;85295.87;;;24.63;41.54
55486;BME280;49383;-25.924;28.194;2023-02-03T08:41:29;85295.47;;;24.88;41.52
55486;BME280;49383;-25.924;28.194;2023-02-03T08:43:55;85291.88;;;24.93;41.45
55486;BME280;49383;-25.924;28.194;2023-02-03T08:46:20;85290.35;;;24.75;41.41
55486;BME280;49383;-25.924;28.194;2023-02-03T08:48:46;85290.04;;;24.62;41.31
55486;BME280;49383;-25.924;28.194;2023-02-03T08:51:14;85285.10;;;24.84;40.99
55486;BME280;49383;-25.924;28.194;2023-02-03T08:53:37;85281.69;;;25.08;40.70
55486;BME280;49383;-25.924;28.194;2023-02-03T08:56:05;85282.33;;;25.24;40.49
55486;BME280;49383;-25.924;28.194;2023-02-03T08:58:29;85279.90;;;24.99;40.45
55486;BME280;49383;-25.924;28.194;2023-02-03T09:00:55;85276.30;;;25.23;40.47
55486;BME280;49383;-25.924;28.194;2023-02-03T09:03:20;85272.83;;;25.22;40.47
55486;BME280;49383;-25.924;28.194;2023-02-03T09:05:46;85273.73;;;24.86;40.60
55486;BME280;49383;-25.924;28.194;2023-02-03T09:08:12;85272.85;;;24.92;40.88
55486;BME280;49383;-25.924;28.194;2023-02-03T09:10:38;85270.77;;;24.88;40.93
55486;BME280;49383;-25.924;28.194;2023-02-03T09:13:04;85269.45;;;25.24;41.05
55486;BME280;49383;-25.924;28.194;2023-02-03T09:15:29;85265.97;;;24.68;41.24
55486;BME280;49383;-25.924;28.194;2023-02-03T09:17:55;85260.11;;;24.88;41.29
55486;BME280;49383;-25.924;28.194;2023-02-03T09:20:21;85257.71;;;25.08;41.31
55486;BME280;49383;-25.924;28.194;2023-02-03T09:22:47;85254.23;;;25.08;41.34
55486;BME280;49383;-25.924;28.194;2023-02-03T09:25:13;85247.46;;;24.63;41.35
55486;BME280;49383;-25.924;28.194;2023-02-03T09:27:39;85243.99;;;25.07;41.35
55486;BME280;49383;-25.924;28.194;2023-02-03T09:30:05;85242.49;;;24.67;41.30
55486;BME280;49383;-25.924;28.194;2023-02-03T09:32:30;85241.04;;;24.67;41.30
55486;BME280;49383;-25.924;28.194;2023-02-03T09:34:56;85235.92;;;25.02;41.13
55486;BME280;49383;-25.924;28.194;2023-02-03T09:37:21;85228.06;;;24.85;41.05
55486;BME280;49383;-25.924;28.194;2023-02-03T09:39:47;85228.79;;;24.82;41.09
55486;BME280;49383;-25.924;28.194;2023-02-03T09:42:23;85226.77;;;25.17;40.92
55486;BME280;49383;-25.924;28.194;2023-02-03T09:44:44;85224.12;;;24.97;40.86
55486;BME280;49383;-25.924;28.194;2023-02-03T09:47:10;85220.15;;;25.13;40.93
55486;BME280;49383;-25.924;28.194;2023-02-03T09:49:37;85216.32;;;24.89;40.96
55486;BME280;49383;-25.924;28.194;2023-02-03T09:52:01;85216.64;;;24.86;40.98
55486;BME280;49383;-25.924;28.194;2023-02-03T09:54:26;85217.88;;;24.76;41.15
55486;BME280;49383;-25.924;28.194;2023-02-03T09:56:48;85219.50;;;24.97;41.17
55486;BME280;49383;-25.924;28.194;2023-02-03T09:59:13;85216.20;;;24.70;41.22
55486;BME280;49383;-25.924;28.194;2023-02-03T10:01:45;85216.75;;;24.90;41.27
55486;BME280;49383;-25.924;28.194;2023-02-03T10:04:12;85208.86;;;24.72;41.20
55486;BME280;49383;-25.924;28.194;2023-02-03T10:06:35;85205.49;;;24.79;41.09
55486;BME280;49383;-25.924;28.194;2023-02-03T10:09:04;85206.66;;;24.80;41.06
55486;BME280;49383;-25.924;28.194;2023-02-03T10:11:29;85206.82;;;24.98;41.14
55486;BME280;49383;-25.924;28.194;2023-02-03T10:13:57;85205.05;;;24.71;41.19
55486;BME280;49383;-25.924;28.194;2023-02-03T10:16:26;85206.06;;;25.18;41.16
55486;BME280;49383;-25.924;28.194;2023-02-03T10:18:43;85203.05;;;24.77;41.11
55486;BME280;49383;-25.924;28.194;2023-02-03T10:21:12;85202.53;;;24.74;41.15
55486;BME280;49383;-25.924;28.194;2023-02-03T10:23:34;85197.55;;;24.96;41.15
55486;BME280;49383;-25.924;28.194;2023-02-03T10:26:00;85193.82;;;24.72;41.18
55486;BME280;49383;-25.924;28.194;2023-02-03T10:28:25;85190.24;;;24.79;41.08
55486;BME280;49383;-25.924;28.194;2023-02-03T10:30:51;85186.47;;;24.93;41.18
55486;BME280;49383;-25.924;28.194;2023-02-03T10:33:15;85185.61;;;24.73;41.15
55486;BME280;49383;-25.924;28.194;2023-02-03T10:35:45;85178.86;;;25.22;41.09
55486;BME280;49383;-25.924;28.194;2023-02-03T10:38:06;85171.81;;;24.90;41.21
55486;BME280;49383;-25.924;28.194;2023-02-03T10:40:31;85166.40;;;25.13;41.20
55486;BME280;49383;-25.924;28.194;2023-02-03T10:42:56;85162.78;;;24.80;41.01
55486;BME280;49383;-25.924;28.194;2023-02-03T10:45:23;85161.79;;;24.92;41.17
55486;BME280;49383;-25.924;28.194;2023-02-03T10:47:52;85156.32;;;24.92;41.16
55486;BME280;49383;-25.924;28.194;2023-02-03T10:50:17;85152.60;;;25.12;41.21
55486;BME280;49383;-25.924;28.194;2023-02-03T10:52:40;85150.09;;;25.17;41.12
55486;BME280;49383;-25.924;28.194;2023-02-03T10:55:07;85151.85;;;25.12;41.18
55486;BME280;49383;-25.924;28.194;2023-02-03T10:57:35;85151.96;;;24.94;41.12
55486;BME280;49383;-25.924;28.194;2023-02-03T11:00:06;85145.17;;;24.68;41.17
55486;BME280;49383;-25.924;28.194;2023-02-03T11:02:26;85142.93;;;24.97;41.08
55486;BME280;49383;-25.924;28.194;2023-02-03T11:07:23;85139.81;;;24.79;40.99
55486;BME280;49383;-25.924;28.194;2023-02-03T11:09:41;85142.81;;;24.72;41.12
55486;BME280;49383;-25.924;28.194;2023-02-03T11:12:11;85140.59;;;24.76;41.05
55486;BME280;49383;-25.924;28.194;2023-02-03T11:14:36;85139.92;;;24.72;41.13
55486;BME280;49383;-25.924;28.194;2023-02-03T11:17:05;85132.07;;;24.76;41.04
55486;BME280;49383;-25.924;28.194;2023-02-03T11:19:23;85126.61;;;24.77;41.04
55486;BME280;49383;-25.924;28.194;2023-02-03T11:21:51;85120.80;;;24.98;41.05
55486;BME280;49383;-25.924;28.194;2023-02-03T11:24:18;85124.33;;;24.80;40.97
55486;BME280;49383;-25.924;28.194;2023-02-03T11:26:44;85127.86;;;25.00;41.02
55486;BME280;49383;-25.924;28.194;2023-02-03T11:31:34;85124.01;;;24.83;40.93
55486;BME280;49383;-25.924;28.194;2023-02-03T11:34:00;85124.76;;;25.26;40.94
55486;BME280;49383;-25.924;28.194;2023-02-03T11:36:27;85128.37;;;25.18;41.05
55486;BME280;49383;-25.924;28.194;2023-02-03T11:38:49;85122.71;;;24.77;41.00
55486;BME280;49383;-25.924;28.194;2023-02-03T11:41:18;85125.24;;;24.97;41.03
55486;BME280;49383;-25.924;28.194;2023-02-03T11:43:41;85119.74;;;24.78;40.95
55486;BME280;49383;-25.924;28.194;2023-02-03T11:46:07;85107.84;;;24.98;40.98
55486;BME280;49383;-25.924;28.194;2023-02-03T11:48:36;85104.24;;;24.74;40.98
55486;BME280;49383;-25.924;28.194;2023-02-03T11:51:04;85100.41;;;24.75;40.96
55486;BME280;49383;-25.924;28.194;2023-02-03T11:53:31;85094.99;;;24.92;41.03
55486;BME280;49383;-25.924;28.194;2023-02-03T12:00:47;85098.37;;;24.78;40.84
55486;BME280;49383;-25.924;28.194;2023-02-03T12:05:46;85089.11;;;25.20;40.51
55486;BME280;49383;-25.924;28.194;2023-02-03T12:08:08;85088.21;;;24.80;40.73
55486;BME280;49383;-25.924;28.194;2023-02-03T12:10:34;85085.99;;;25.17;40.82
55486;BME280;49383;-25.924;28.194;2023-02-03T12:12:55;85073.76;;;25.13;40.87
55486;BME280;49383;-25.924;28.194;2023-02-03T12:15:29;85072.73;;;25.07;40.93
55486;BME280;49383;-25.924;28.194;2023-02-03T12:17:55;85074.65;;;24.92;40.83
55486;BME280;49383;-25.924;28.194;2023-02-03T12:20:17;85080.77;;;24.85;40.90
55486;BME280;49383;-25.924;28.194;2023-02-03T12:22:38;85090.58;;;24.90;40.81
55486;BME280;49383;-25.924;28.194;2023-02-03T12:25:04;85095.68;;;25.08;40.84
55486;BME280;49383;-25.924;28.194;2023-02-03T12:27:35;85104.91;;;25.01;40.93
55486;BME280;49383;-25.924;28.194;2023-02-03T12:29:54;85101.61;;;25.02;40.90
55486;BME280;49383;-25.924;28.194;2023-02-03T12:32:23;85085.98;;;24.80;40.88
55486;BME280;49383;-25.924;28.194;2023-02-03T12:34:48;85092.75;;;25.02;40.85
55486;BME280;49383;-25.924;28.194;2023-02-03T12:37:12;85100.49;;;24.79;40.84
55486;BME280;49383;-25.924;28.194;2023-02-03T12:39:40;85076.79;;;24.96;40.88
55486;BME280;49383;-25.924;28.194;2023-02-03T12:42:03;85058.00;;;24.90;40.93
55486;BME280;49383;-25.924;28.194;2023-02-03T12:44:30;85061.20;;;24.85;40.97
55486;BME280;49383;-25.924;28.194;2023-02-03T12:46:59;85064.72;;;24.44;40.91
55486;BME280;49383;-25.924;28.194;2023-02-03T12:49:27;85066.98;;;24.50;40.80
55486;BME280;49383;-25.924;28.194;2023-02-03T12:51:46;85057.72;;;25.01;40.70